sensor_id;sensor_type;location;lat;lon;timestamp;P1;durP1;ratioP1;P2;durP2;ratioP2
66886;SDS011;67239;51.680;5.976;2024-02-16T00:00:13;7.32;;;2.70;;
66886;SDS011;67239;51.680;5.976;2024-02-16T00:02:40;6.13;;;2.55;;
66886;SDS011;67239;51.680;5.976;2024-02-16T00:05:09;6.28;;;2.42;;
66886;SDS011;67239;51.680;5.976;2024-02-16T00:07:40;6.13;;;2.67;;
66886;SDS011;67239;51.680;5.976;2024-02-16T00:10:07;6.25;;;2.75;;
66886;SDS011;67239;51.680;5.976;2024-02-16T00:12:36;7.07;;;2.42;;
66886;SDS011;67239;51.680;5.976;2024-02-16T00:15:05;4.25;;;2.60;;
66886;SDS011;67239;51.680;5.976;2024-02-16T00:17:33;5.75;;;2.65;;
66886;SDS011;67239;51.680;5.976;2024-02-16T00:20:00;6.80;;;3.03;;
66886;SDS011;67239;51.680;5.976;2024-02-16T00:22:28;6.28;;;2.65;;
66886;SDS011;67239;51.680;5.976;2024-02-16T00:24:55;5.57;;;2.90;;
66886;SDS011;67239;51.680;5.976;2024-02-16T00:27:22;4.90;;;2.60;;
66886;SDS011;67239;51.680;5.976;2024-02-16T00:29:49;5.50;;;2.92;;
66886;SDS011;67239;51.680;5.976;2024-02-16T00:32:17;4.15;;;2.80;;
66886;SDS011;67239;51.680;5.976;2024-02-16T00:34:44;4.63;;;2.50;;
66886;SDS011;67239;51.680;5.976;2024-02-16T00:37:11;6.20;;;2.78;;
66886;SDS011;67239;51.680;5.976;2024-02-16T00:39:39;5.97;;;2.60;;
66886;SDS011;67239;51.680;5.976;2024-02-16T00:42:09;6.10;;;2.50;;
66886;SDS011;67239;51.680;5.976;2024-02-16T00:44:37;7.35;;;3.08;;
66886;SDS011;67239;51.680;5.976;2024-02-16T00:47:05;4.85;;;2.47;;
66886;SDS011;67239;51.680;5.976;2024-02-16T00:49:32;4.95;;;2.25;;
66886;SDS011;67239;51.680;5.976;2024-02-16T00:52:00;6.75;;;2.70;;
66886;SDS011;67239;51.680;5.976;2024-02-16T00:54:28;5.80;;;2.97;;
66886;SDS011;67239;51.680;5.976;2024-02-16T00:56:56;6.82;;;3.33;;
66886;SDS011;67239;51.680;5.976;2024-02-16T00:59:28;7.47;;;3.10;;
66886;SDS011;67239;51.680;5.976;2024-02-16T01:01:56;5.53;;;2.75;;
66886;SDS011;67239;51.680;5.976;2024-02-16T01:04:23;5.57;;;2.50;;
66886;SDS011;67239;51.680;5.976;2024-02-16T01:06:50;3.92;;;2.30;;
66886;SDS011;67239;51.680;5.976;2024-02-16T01:09:17;4.50;;;2.50;;
66886;SDS011;67239;51.680;5.976;2024-02-16T01:11:44;4.97;;;2.60;;
66886;SDS011;67239;51.680;5.976;2024-02-16T01:14:12;4.63;;;2.47;;
66886;SDS011;67239;51.680;5.976;2024-02-16T01:16:39;5.85;;;3.00;;
66886;SDS011;67239;51.680;5.976;2024-02-16T01:19:06;5.78;;;2.40;;
66886;SDS011;67239;51.680;5.976;2024-02-16T01:21:34;4.68;;;2.65;;
66886;SDS011;67239;51.680;5.976;2024-02-16T01:24:01;4.45;;;2.40;;
66886;SDS011;67239;51.680;5.976;2024-02-16T01:26:28;5.05;;;2.80;;
66886;SDS011;67239;51.680;5.976;2024-02-16T01:28:56;5.43;;;2.55;;
66886;SDS011;67239;51.680;5.976;2024-02-16T01:31:24;6.60;;;2.65;;
66886;SDS011;67239;51.680;5.976;2024-02-16T01:33:52;7.18;;;2.60;;
66886;SDS011;67239;51.680;5.976;2024-02-16T01:36:19;4.80;;;2.70;;
66886;SDS011;67239;51.680;5.976;2024-02-16T01:38:46;7.72;;;2.58;;
66886;SDS011;67239;51.680;5.976;2024-02-16T01:41:13;5.90;;;2.53;;
66886;SDS011;67239;51.680;5.976;2024-02-16T01:43:42;6.10;;;2.90;;
66886;SDS011;67239;51.680;5.976;2024-02-16T01:46:09;5.20;;;2.60;;
66886;SDS011;67239;51.680;5.976;2024-02-16T01:48:36;3.72;;;2.40;;
66886;SDS011;67239;51.680;5.976;2024-02-16T01:51:07;6.75;;;2.67;;
66886;SDS011;67239;51.680;5.976;2024-02-16T01:53:36;6.97;;;2.80;;
66886;SDS011;67239;51.680;5.976;2024-02-16T01:56:05;7.40;;;2.92;;
66886;SDS011;67239;51.680;5.976;2024-02-16T01:58:33;7.15;;;2.63;;
66886;SDS011;67239;51.680;5.976;2024-02-16T02:01:00;5.28;;;2.70;;
66886;SDS011;67239;51.680;5.976;2024-02-16T02:03:28;3.58;;;2.08;;
66886;SDS011;67239;51.680;5.976;2024-02-16T02:05:56;4.88;;;2.45;;
66886;SDS011;67239;51.680;5.976;2024-02-16T02:08:24;5.32;;;2.92;;
66886;SDS011;67239;51.680;5.976;2024-02-16T02:10:53;4.32;;;2.42;;
66886;SDS011;67239;51.680;5.976;2024-02-16T02:13:20;5.38;;;2.50;;
66886;SDS011;67239;51.680;5.976;2024-02-16T02:15:49;6.50;;;2.80;;
66886;SDS011;67239;51.680;5.976;2024-02-16T02:18:16;6.40;;;2.85;;
66886;SDS011;67239;51.680;5.976;2024-02-16T02:20:44;7.63;;;2.63;;
66886;SDS011;67239;51.680;5.976;2024-02-16T02:23:11;5.63;;;2.75;;
66886;SDS011;67239;51.680;5.976;2024-02-16T02:25:38;5.60;;;2.50;;
66886;SDS011;67239;51.680;5.976;2024-02-16T02:28:06;4.82;;;2.78;;
66886;SDS011;67239;51.680;5.976;2024-02-16T02:30:35;4.15;;;2.70;;
66886;SDS011;67239;51.680;5.976;2024-02-16T02:33:02;6.10;;;2.78;;
66886;SDS011;67239;51.680;5.976;2024-02-16T02:35:30;6.75;;;2.97;;
66886;SDS011;67239;51.680;5.976;2024-02-16T02:37:57;4.82;;;2.45;;
66886;SDS011;67239;51.680;5.976;2024-02-16T02:40:24;6.35;;;2.60;;
66886;SDS011;67239;51.680;5.976;2024-02-16T02:42:52;5.57;;;2.80;;
66886;SDS011;67239;51.680;5.976;2024-02-16T02:45:20;5.65;;;2.50;;
66886;SDS011;67239;51.680;5.976;2024-02-16T02:47:47;5.22;;;2.88;;
66886;SDS011;67239;51.680;5.976;2024-02-16T02:50:15;4.32;;;2.60;;
66886;SDS011;67239;51.680;5.976;2024-02-16T02:52:43;4.63;;;2.55;;
66886;SDS011;67239;51.680;5.976;2024-02-16T02:55:12;5.25;;;2.80;;
66886;SDS011;67239;51.680;5.976;2024-02-16T02:57:39;4.80;;;2.53;;
66886;SDS011;67239;51.680;5.976;2024-02-16T03:00:06;3.92;;;2.40;;
66886;SDS011;67239;51.680;5.976;2024-02-16T03:02:39;5.23;;;2.50;;
66886;SDS011;67239;51.680;5.976;2024-02-16T03:05:07;3.88;;;2.38;;
66886;SDS011;67239;51.680;5.976;2024-02-16T03:07:35;3.88;;;2.50;;
66886;SDS011;67239;51.680;5.976;2024-02-16T03:10:02;5.85;;;2.55;;
66886;SDS011;67239;51.680;5.976;2024-02-16T03:12:31;5.15;;;2.75;;
66886;SDS011;67239;51.680;5.976;2024-02-16T03:14:59;5.05;;;2.58;;
66886;SDS011;67239;51.680;5.976;2024-02-16T03:17:26;9.27;;;2.80;;
66886;SDS011;67239;51.680;5.976;2024-02-16T03:19:53;5.93;;;2.53;;
66886;SDS011;67239;51.680;5.976;2024-02-16T03:22:21;5.93;;;2.60;;
66886;SDS011;67239;51.680;5.976;2024-02-16T03:24:48;4.95;;;2.65;;
66886;SDS011;67239;51.680;5.976;2024-02-16T03:27:15;4.22;;;2.60;;
66886;SDS011;67239;51.680;5.976;2024-02-16T03:29:42;5.38;;;2.80;;
66886;SDS011;67239;51.680;5.976;2024-02-16T03:32:10;4.40;;;2.78;;
66886;SDS011;67239;51.680;5.976;2024-02-16T03:34:37;4.32;;;2.75;;
66886;SDS011;67239;51.680;5.976;2024-02-16T03:37:05;5.07;;;2.88;;
66886;SDS011;67239;51.680;5.976;2024-02-16T03:39:32;4.28;;;2.78;;
66886;SDS011;67239;51.680;5.976;2024-02-16T03:41:59;4.57;;;2.60;;
66886;SDS011;67239;51.680;5.976;2024-02-16T03:44:26;4.97;;;2.88;;
66886;SDS011;67239;51.680;5.976;2024-02-16T03:46:53;5.70;;;2.85;;
66886;SDS011;67239;51.680;5.976;2024-02-16T03:49:22;6.97;;;3.30;;
66886;SDS011;67239;51.680;5.976;2024-02-16T03:51:54;4.60;;;2.78;;
66886;SDS011;67239;51.680;5.976;2024-02-16T03:54:22;6.88;;;3.17;;
66886;SDS011;67239;51.680;5.976;2024-02-16T03:56:52;6.70;;;2.83;;
66886;SDS011;67239;51.680;5.976;2024-02-16T03:59:20;5.07;;;2.67;;
66886;SDS011;67239;51.680;5.976;2024-02-16T04:01:48;6.05;;;3.22;;
66886;SDS011;67239;51.680;5.976;2024-02-16T04:04:16;7.53;;;2.92;;
66886;SDS011;67239;51.680;5.976;2024-02-16T04:06:43;7.22;;;2.90;;
66886;SDS011;67239;51.680;5.976;2024-02-16T04:09:10;6.22;;;2.83;;
66886;SDS011;67239;51.680;5.976;2024-02-16T04:11:39;7.68;;;3.03;;
66886;SDS011;67239;51.680;5.976;2024-02-16T04:14:06;6.13;;;3.25;;
66886;SDS011;67239;51.680;5.976;2024-02-16T04:16:34;6.45;;;2.83;;
66886;SDS011;67239;51.680;5.976;2024-02-16T04:19:01;4.68;;;2.75;;
66886;SDS011;67239;51.680;5.976;2024-02-16T04:21:28;4.85;;;2.90;;
66886;SDS011;67239;51.680;5.976;2024-02-16T04:23:56;5.03;;;2.92;;
66886;SDS011;67239;51.680;5.976;2024-02-16T04:26:23;5.38;;;2.88;;
66886;SDS011;67239;51.680;5.976;2024-02-16T04:28:50;7.47;;;3.08;;
66886;SDS011;67239;51.680;5.976;2024-02-16T04:31:17;4.18;;;2.75;;
66886;SDS011;67239;51.680;5.976;2024-02-16T04:33:45;5.82;;;2.80;;
66886;SDS011;67239;51.680;5.976;2024-02-16T04:36:12;7.45;;;3.30;;
66886;SDS011;67239;51.680;5.976;2024-02-16T04:38:39;4.88;;;2.75;;
66886;SDS011;67239;51.680;5.976;2024-02-16T04:41:06;5.57;;;2.80;;
66886;SDS011;67239;51.680;5.976;2024-02-16T04:43:34;7.25;;;2.85;;
66886;SDS011;67239;51.680;5.976;2024-02-16T04:46:02;4.85;;;2.55;;
66886;SDS011;67239;51.680;5.976;2024-02-16T04:48:29;8.80;;;3.20;;
66886;SDS011;67239;51.680;5.976;2024-02-16T04:50:58;6.50;;;2.70;;
66886;SDS011;67239;51.680;5.976;2024-02-16T04:53:25;5.78;;;2.47;;
66886;SDS011;67239;51.680;5.976;2024-02-16T04:55:52;5.40;;;2.95;;
66886;SDS011;67239;51.680;5.976;2024-02-16T04:58:19;8.10;;;3.08;;
66886;SDS011;67239;51.680;5.976;2024-02-16T05:00:46;7.70;;;2.80;;
66886;SDS011;67239;51.680;5.976;2024-02-16T05:03:14;6.18;;;2.80;;
66886;SDS011;67239;51.680;5.976;2024-02-16T05:05:42;6.55;;;3.05;;
66886;SDS011;67239;51.680;5.976;2024-02-16T05:08:10;6.18;;;3.00;;
66886;SDS011;67239;51.680;5.976;2024-02-16T05:10:37;9.40;;;3.25;;
66886;SDS011;67239;51.680;5.976;2024-02-16T05:13:04;5.80;;;2.90;;
66886;SDS011;67239;51.680;5.976;2024-02-16T05:15:31;9.70;;;2.97;;
66886;SDS011;67239;51.680;5.976;2024-02-16T05:17:59;10.40;;;3.30;;
66886;SDS011;67239;51.680;5.976;2024-02-16T05:20:27;9.68;;;3.08;;
66886;SDS011;67239;51.680;5.976;2024-02-16T05:22:54;8.07;;;3.08;;
66886;SDS011;67239;51.680;5.976;2024-02-16T05:25:23;7.80;;;2.92;;
66886;SDS011;67239;51.680;5.976;2024-02-16T05:27:50;6.72;;;3.00;;
66886;SDS011;67239;51.680;5.976;2024-02-16T05:30:17;5.70;;;2.80;;
66886;SDS011;67239;51.680;5.976;2024-02-16T05:32:45;5.72;;;2.88;;
66886;SDS011;67239;51.680;5.976;2024-02-16T05:35:12;5.50;;;3.05;;
66886;SDS011;67239;51.680;5.976;2024-02-16T05:37:45;5.35;;;3.25;;
66886;SDS011;67239;51.680;5.976;2024-02-16T05:40:16;8.32;;;3.20;;
66886;SDS011;67239;51.680;5.976;2024-02-16T05:42:57;6.50;;;2.88;;
66886;SDS011;67239;51.680;5.976;2024-02-16T05:45:25;7.22;;;3.45;;
66886;SDS011;67239;51.680;5.976;2024-02-16T05:47:55;7.40;;;3.25;;
66886;SDS011;67239;51.680;5.976;2024-02-16T05:50:23;8.32;;;3.30;;
66886;SDS011;67239;51.680;5.976;2024-02-16T05:52:50;12.18;;;3.33;;
66886;SDS011;67239;51.680;5.976;2024-02-16T05:55:19;8.10;;;3.10;;
66886;SDS011;67239;51.680;5.976;2024-02-16T05:57:46;8.00;;;3.03;;
66886;SDS011;67239;51.680;5.976;2024-02-16T06:00:14;8.15;;;3.10;;
66886;SDS011;67239;51.680;5.976;2024-02-16T06:02:42;4.97;;;2.92;;
66886;SDS011;67239;51.680;5.976;2024-02-16T06:05:10;7.53;;;3.05;;
66886;SDS011;67239;51.680;5.976;2024-02-16T06:07:38;6.60;;;3.30;;
66886;SDS011;67239;51.680;5.976;2024-02-16T06:10:06;7.97;;;3.30;;
66886;SDS011;67239;51.680;5.976;2024-02-16T06:12:38;5.97;;;2.83;;
66886;SDS011;67239;51.680;5.976;2024-02-16T06:15:07;8.88;;;3.40;;
66886;SDS011;67239;51.680;5.976;2024-02-16T06:17:36;8.48;;;3.50;;
66886;SDS011;67239;51.680;5.976;2024-02-16T06:20:09;10.32;;;2.90;;
66886;SDS011;67239;51.680;5.976;2024-02-16T06:22:38;8.25;;;2.85;;
66886;SDS011;67239;51.680;5.976;2024-02-16T06:25:06;9.52;;;3.10;;
66886;SDS011;67239;51.680;5.976;2024-02-16T06:27:35;8.48;;;3.13;;
66886;SDS011;67239;51.680;5.976;2024-02-16T06:30:03;9.63;;;3.08;;
66886;SDS011;67239;51.680;5.976;2024-02-16T06:32:32;6.00;;;3.13;;
66886;SDS011;67239;51.680;5.976;2024-02-16T06:35:00;8.75;;;3.40;;
66886;SDS011;67239;51.680;5.976;2024-02-16T06:37:28;7.90;;;3.25;;
66886;SDS011;67239;51.680;5.976;2024-02-16T06:39:56;6.10;;;3.22;;
66886;SDS011;67239;51.680;5.976;2024-02-16T06:42:24;5.78;;;3.42;;
66886;SDS011;67239;51.680;5.976;2024-02-16T06:44:52;6.50;;;3.00;;
66886;SDS011;67239;51.680;5.976;2024-02-16T06:47:20;6.38;;;3.22;;
66886;SDS011;67239;51.680;5.976;2024-02-16T06:49:48;8.15;;;3.60;;
66886;SDS011;67239;51.680;5.976;2024-02-16T06:52:16;9.63;;;3.60;;
66886;SDS011;67239;51.680;5.976;2024-02-16T06:54:44;6.40;;;3.40;;
66886;SDS011;67239;51.680;5.976;2024-02-16T06:57:12;8.25;;;3.30;;
66886;SDS011;67239;51.680;5.976;2024-02-16T06:59:40;12.02;;;3.63;;
66886;SDS011;67239;51.680;5.976;2024-02-16T07:02:08;7.82;;;3.90;;
66886;SDS011;67239;51.680;5.976;2024-02-16T07:04:41;13.10;;;3.95;;
66886;SDS011;67239;51.680;5.976;2024-02-16T07:07:09;11.10;;;3.95;;
66886;SDS011;67239;51.680;5.976;2024-02-16T07:09:37;10.70;;;4.20;;
66886;SDS011;67239;51.680;5.976;2024-02-16T07:12:06;10.52;;;4.07;;
66886;SDS011;67239;51.680;5.976;2024-02-16T07:14:35;9.60;;;3.58;;
66886;SDS011;67239;51.680;5.976;2024-02-16T07:17:03;10.55;;;4.00;;
66886;SDS011;67239;51.680;5.976;2024-02-16T07:19:34;15.95;;;3.97;;
66886;SDS011;67239;51.680;5.976;2024-02-16T07:22:04;12.43;;;4.68;;
66886;SDS011;67239;51.680;5.976;2024-02-16T07:24:34;10.20;;;3.67;;
66886;SDS011;67239;51.680;5.976;2024-02-16T07:27:02;10.38;;;4.05;;
66886;SDS011;67239;51.680;5.976;2024-02-16T07:29:30;14.27;;;4.32;;
66886;SDS011;67239;51.680;5.976;2024-02-16T07:31:59;10.10;;;3.65;;
66886;SDS011;67239;51.680;5.976;2024-02-16T07:34:27;21.48;;;4.43;;
66886;SDS011;67239;51.680;5.976;2024-02-16T07:36:56;13.73;;;4.55;;
66886;SDS011;67239;51.680;5.976;2024-02-16T07:39:24;9.93;;;3.95;;
66886;SDS011;67239;51.680;5.976;2024-02-16T07:41:52;9.82;;;3.80;;
66886;SDS011;67239;51.680;5.976;2024-02-16T07:44:20;12.45;;;4.15;;
66886;SDS011;67239;51.680;5.976;2024-02-16T07:46:48;7.45;;;3.20;;
66886;SDS011;67239;51.680;5.976;2024-02-16T07:49:18;7.47;;;3.83;;
66886;SDS011;67239;51.680;5.976;2024-02-16T07:51:46;12.40;;;4.53;;
66886;SDS011;67239;51.680;5.976;2024-02-16T07:54:13;18.35;;;4.07;;
66886;SDS011;67239;51.680;5.976;2024-02-16T07:56:41;9.15;;;3.97;;
66886;SDS011;67239;51.680;5.976;2024-02-16T07:59:09;10.13;;;4.20;;
66886;SDS011;67239;51.680;5.976;2024-02-16T08:01:37;10.88;;;3.63;;
66886;SDS011;67239;51.680;5.976;2024-02-16T08:04:06;20.60;;;4.78;;
66886;SDS011;67239;51.680;5.976;2024-02-16T08:06:33;8.52;;;4.20;;
66886;SDS011;67239;51.680;5.976;2024-02-16T08:09:02;9.27;;;3.70;;
66886;SDS011;67239;51.680;5.976;2024-02-16T08:11:32;10.80;;;3.80;;
66886;SDS011;67239;51.680;5.976;2024-02-16T08:14:00;7.00;;;3.55;;
66886;SDS011;67239;51.680;5.976;2024-02-16T08:16:28;17.85;;;4.10;;
66886;SDS011;67239;51.680;5.976;2024-02-16T08:18:56;16.60;;;3.85;;
66886;SDS011;67239;51.680;5.976;2024-02-16T08:21:24;12.68;;;4.05;;
66886;SDS011;67239;51.680;5.976;2024-02-16T08:23:52;24.70;;;4.50;;
66886;SDS011;67239;51.680;5.976;2024-02-16T08:26:21;7.72;;;3.35;;
66886;SDS011;67239;51.680;5.976;2024-02-16T08:28:49;13.25;;;3.95;;
66886;SDS011;67239;51.680;5.976;2024-02-16T08:31:17;9.07;;;3.58;;
66886;SDS011;67239;51.680;5.976;2024-02-16T08:33:45;19.50;;;4.55;;
66886;SDS011;67239;51.680;5.976;2024-02-16T08:36:14;10.82;;;3.67;;
66886;SDS011;67239;51.680;5.976;2024-02-16T08:38:43;11.40;;;3.80;;
66886;SDS011;67239;51.680;5.976;2024-02-16T08:41:11;15.82;;;3.97;;
66886;SDS011;67239;51.680;5.976;2024-02-16T08:43:39;9.18;;;3.75;;
66886;SDS011;67239;51.680;5.976;2024-02-16T08:46:07;9.88;;;3.30;;
66886;SDS011;67239;51.680;5.976;2024-02-16T08:48:35;8.98;;;3.50;;
66886;SDS011;67239;51.680;5.976;2024-02-16T08:51:04;7.75;;;3.40;;
66886;SDS011;67239;51.680;5.976;2024-02-16T08:53:34;5.97;;;3.78;;
66886;SDS011;67239;51.680;5.976;2024-02-16T08:56:02;7.40;;;3.60;;
66886;SDS011;67239;51.680;5.976;2024-02-16T08:58:31;9.38;;;3.88;;
66886;SDS011;67239;51.680;5.976;2024-02-16T09:00:59;6.28;;;3.55;;
66886;SDS011;67239;51.680;5.976;2024-02-16T09:03:26;6.50;;;3.72;;
66886;SDS011;67239;51.680;5.976;2024-02-16T09:05:55;6.30;;;3.55;;
66886;SDS011;67239;51.680;5.976;2024-02-16T09:08:23;9.15;;;4.00;;
66886;SDS011;67239;51.680;5.976;2024-02-16T09:10:52;10.63;;;3.45;;
66886;SDS011;67239;51.680;5.976;2024-02-16T09:13:20;6.32;;;3.35;;
66886;SDS011;67239;51.680;5.976;2024-02-16T09:15:59;9.20;;;3.70;;
66886;SDS011;67239;51.680;5.976;2024-02-16T09:18:30;11.20;;;3.97;;
66886;SDS011;67239;51.680;5.976;2024-02-16T09:20:58;8.32;;;3.90;;
66886;SDS011;67239;51.680;5.976;2024-02-16T09:23:26;8.02;;;3.72;;
66886;SDS011;67239;51.680;5.976;2024-02-16T09:25:55;7.43;;;3.70;;
66886;SDS011;67239;51.680;5.976;2024-02-16T09:28:24;7.50;;;4.00;;
66886;SDS011;67239;51.680;5.976;2024-02-16T09:30:56;10.32;;;4.03;;
66886;SDS011;67239;51.680;5.976;2024-02-16T09:33:24;13.52;;;4.32;;
66886;SDS011;67239;51.680;5.976;2024-02-16T09:35:54;10.35;;;4.15;;
66886;SDS011;67239;51.680;5.976;2024-02-16T09:38:22;9.10;;;3.85;;
66886;SDS011;67239;51.680;5.976;2024-02-16T09:40:50;10.07;;;4.45;;
66886;SDS011;67239;51.680;5.976;2024-02-16T09:43:26;14.30;;;4.90;;
66886;SDS011;67239;51.680;5.976;2024-02-16T09:45:57;12.27;;;4.10;;
66886;SDS011;67239;51.680;5.976;2024-02-16T09:48:31;22.48;;;5.10;;
66886;SDS011;67239;51.680;5.976;2024-02-16T09:50:59;16.67;;;4.60;;
66886;SDS011;67239;51.680;5.976;2024-02-16T09:53:28;38.10;;;7.55;;
66886;SDS011;67239;51.680;5.976;2024-02-16T09:55:57;21.17;;;4.75;;
66886;SDS011;67239;51.680;5.976;2024-02-16T09:58:25;12.85;;;4.07;;
66886;SDS011;67239;51.680;5.976;2024-02-16T10:00:54;10.07;;;4.10;;
66886;SDS011;67239;51.680;5.976;2024-02-16T10:03:25;25.70;;;4.90;;
66886;SDS011;67239;51.680;5.976;2024-02-16T10:06:06;19.40;;;5.00;;
66886;SDS011;67239;51.680;5.976;2024-02-16T10:08:47;8.85;;;4.47;;
66886;SDS011;67239;51.680;5.976;2024-02-16T10:11:20;14.37;;;4.67;;
66886;SDS011;67239;51.680;5.976;2024-02-16T10:13:55;13.88;;;4.50;;
66886;SDS011;67239;51.680;5.976;2024-02-16T10:16:28;9.48;;;3.92;;
66886;SDS011;67239;51.680;5.976;2024-02-16T10:19:04;10.10;;;3.75;;
66886;SDS011;67239;51.680;5.976;2024-02-16T10:21:34;14.40;;;4.28;;
66886;SDS011;67239;51.680;5.976;2024-02-16T10:24:06;8.57;;;3.97;;
66886;SDS011;67239;51.680;5.976;2024-02-16T10:26:36;10.98;;;4.30;;
66886;SDS011;67239;51.680;5.976;2024-02-16T10:29:06;8.75;;;4.32;;
66886;SDS011;67239;51.680;5.976;2024-02-16T10:31:37;8.77;;;4.60;;
66886;SDS011;67239;51.680;5.976;2024-02-16T10:34:05;8.25;;;4.03;;
66886;SDS011;67239;51.680;5.976;2024-02-16T10:36:35;8.82;;;4.22;;
66886;SDS011;67239;51.680;5.976;2024-02-16T10:39:05;7.85;;;4.10;;
66886;SDS011;67239;51.680;5.976;2024-02-16T10:41:40;8.70;;;4.30;;
66886;SDS011;67239;51.680;5.976;2024-02-16T10:44:09;11.73;;;4.55;;
66886;SDS011;67239;51.680;5.976;2024-02-16T10:46:38;11.88;;;4.80;;
66886;SDS011;67239;51.680;5.976;2024-02-16T10:49:07;6.30;;;4.47;;
66886;SDS011;67239;51.680;5.976;2024-02-16T10:51:37;8.95;;;4.85;;
66886;SDS011;67239;51.680;5.976;2024-02-16T10:54:12;5.90;;;4.35;;
66886;SDS011;67239;51.680;5.976;2024-02-16T10:56:45;11.10;;;4.90;;
66886;SDS011;67239;51.680;5.976;2024-02-16T10:59:13;8.52;;;5.20;;
66886;SDS011;67239;51.680;5.976;2024-02-16T11:01:43;9.02;;;4.43;;
66886;SDS011;67239;51.680;5.976;2024-02-16T11:04:14;10.88;;;5.07;;
66886;SDS011;67239;51.680;5.976;2024-02-16T11:09:27;7.53;;;4.93;;
66886;SDS011;67239;51.680;5.976;2024-02-16T11:12:03;8.70;;;4.97;;
66886;SDS011;67239;51.680;5.976;2024-02-16T11:14:40;11.80;;;4.82;;
66886;SDS011;67239;51.680;5.976;2024-02-16T11:17:21;9.80;;;4.80;;
66886;SDS011;67239;51.680;5.976;2024-02-16T11:19:54;11.32;;;6.13;;
66886;SDS011;67239;51.680;5.976;2024-02-16T11:24:58;10.35;;;4.38;;
66886;SDS011;67239;51.680;5.976;2024-02-16T11:27:28;10.52;;;5.32;;
66886;SDS011;67239;51.680;5.976;2024-02-16T11:29:59;11.63;;;4.95;;
66886;SDS011;67239;51.680;5.976;2024-02-16T11:32:31;8.60;;;5.28;;
66886;SDS011;67239;51.680;5.976;2024-02-16T11:37:35;7.95;;;4.43;;
66886;SDS011;67239;51.680;5.976;2024-02-16T11:40:04;7.65;;;5.00;;
66886;SDS011;67239;51.680;5.976;2024-02-16T11:42:36;8.88;;;4.97;;
66886;SDS011;67239;51.680;5.976;2024-02-16T11:45:03;10.88;;;5.10;;
66886;SDS011;67239;51.680;5.976;2024-02-16T11:47:31;9.75;;;5.22;;
66886;SDS011;67239;51.680;5.976;2024-02-16T11:52:40;9.02;;;5.22;;
66886;SDS011;67239;51.680;5.976;2024-02-16T11:55:08;9.82;;;5.32;;
66886;SDS011;67239;51.680;5.976;2024-02-16T11:57:38;10.32;;;5.88;;
66886;SDS011;67239;51.680;5.976;2024-02-16T12:00:08;8.60;;;5.13;;
66886;SDS011;67239;51.680;5.976;2024-02-16T12:02:42;8.60;;;5.47;;
66886;SDS011;67239;51.680;5.976;2024-02-16T12:05:13;10.93;;;5.63;;
66886;SDS011;67239;51.680;5.976;2024-02-16T12:07:42;11.07;;;6.03;;
66886;SDS011;67239;51.680;5.976;2024-02-16T12:10:11;12.57;;;5.50;;
66886;SDS011;67239;51.680;5.976;2024-02-16T12:12:39;9.60;;;5.93;;
66886;SDS011;67239;51.680;5.976;2024-02-16T12:15:10;10.52;;;5.65;;
66886;SDS011;67239;51.680;5.976;2024-02-16T12:17:40;13.20;;;5.93;;
66886;SDS011;67239;51.680;5.976;2024-02-16T12:20:12;10.23;;;5.50;;
66886;SDS011;67239;51.680;5.976;2024-02-16T12:22:43;10.05;;;6.10;;
66886;SDS011;67239;51.680;5.976;2024-02-16T12:25:11;11.85;;;6.28;;
66886;SDS011;67239;51.680;5.976;2024-02-16T12:27:39;11.13;;;6.60;;
66886;SDS011;67239;51.680;5.976;2024-02-16T12:30:07;12.13;;;6.55;;
66886;SDS011;67239;51.680;5.976;2024-02-16T12:32:36;10.63;;;6.57;;
66886;SDS011;67239;51.680;5.976;2024-02-16T12:35:03;11.23;;;6.65;;
66886;SDS011;67239;51.680;5.976;2024-02-16T12:37:33;13.43;;;6.97;;
66886;SDS011;67239;51.680;5.976;2024-02-16T12:40:02;13.40;;;7.85;;
66886;SDS011;67239;51.680;5.976;2024-02-16T12:42:31;18.67;;;8.68;;
66886;SDS011;67239;51.680;5.976;2024-02-16T12:44:59;15.63;;;7.95;;
66886;SDS011;67239;51.680;5.976;2024-02-16T12:47:27;12.57;;;8.13;;
66886;SDS011;67239;51.680;5.976;2024-02-16T12:49:55;15.32;;;8.68;;
66886;SDS011;67239;51.680;5.976;2024-02-16T12:52:24;12.38;;;8.30;;
66886;SDS011;67239;51.680;5.976;2024-02-16T12:54:52;13.77;;;8.38;;
66886;SDS011;67239;51.680;5.976;2024-02-16T12:57:20;17.63;;;9.25;;
66886;SDS011;67239;51.680;5.976;2024-02-16T12:59:48;12.25;;;9.60;;
66886;SDS011;67239;51.680;5.976;2024-02-16T13:02:15;14.60;;;9.05;;
66886;SDS011;67239;51.680;5.976;2024-02-16T13:04:43;12.38;;;9.38;;
66886;SDS011;67239;51.680;5.976;2024-02-16T13:07:10;13.70;;;8.48;;
66886;SDS011;67239;51.680;5.976;2024-02-16T13:09:38;11.43;;;7.97;;
66886;SDS011;67239;51.680;5.976;2024-02-16T13:12:05;13.95;;;7.80;;
66886;SDS011;67239;51.680;5.976;2024-02-16T13:14:33;10.82;;;8.40;;
66886;SDS011;67239;51.680;5.976;2024-02-16T13:17:00;11.85;;;7.88;;
66886;SDS011;67239;51.680;5.976;2024-02-16T13:19:27;12.20;;;8.35;;
66886;SDS011;67239;51.680;5.976;2024-02-16T13:21:54;11.52;;;7.45;;
66886;SDS011;67239;51.680;5.976;2024-02-16T13:24:21;11.05;;;8.00;;
66886;SDS011;67239;51.680;5.976;2024-02-16T13:26:49;12.75;;;7.95;;
66886;SDS011;67239;51.680;5.976;2024-02-16T13:29:16;11.18;;;7.68;;
66886;SDS011;67239;51.680;5.976;2024-02-16T13:31:43;9.35;;;7.95;;
66886;SDS011;67239;51.680;5.976;2024-02-16T13:34:10;9.85;;;7.60;;
66886;SDS011;67239;51.680;5.976;2024-02-16T13:36:38;11.60;;;8.00;;
66886;SDS011;67239;51.680;5.976;2024-02-16T13:39:05;9.23;;;7.60;;
66886;SDS011;67239;51.680;5.976;2024-02-16T13:41:33;11.57;;;7.75;;
66886;SDS011;67239;51.680;5.976;2024-02-16T13:44:00;11.05;;;7.35;;
66886;SDS011;67239;51.680;5.976;2024-02-16T13:46:28;9.82;;;7.03;;
66886;SDS011;67239;51.680;5.976;2024-02-16T13:48:55;9.20;;;6.70;;
66886;SDS011;67239;51.680;5.976;2024-02-16T13:51:23;9.63;;;7.05;;
66886;SDS011;67239;51.680;5.976;2024-02-16T13:53:51;7.95;;;6.40;;
66886;SDS011;67239;51.680;5.976;2024-02-16T13:56:20;7.20;;;5.57;;
66886;SDS011;67239;51.680;5.976;2024-02-16T13:58:47;9.07;;;7.10;;
66886;SDS011;67239;51.680;5.976;2024-02-16T14:01:14;11.23;;;8.35;;
66886;SDS011;67239;51.680;5.976;2024-02-16T14:03:42;13.48;;;10.00;;
66886;SDS011;67239;51.680;5.976;2024-02-16T14:06:10;13.73;;;10.10;;
66886;SDS011;67239;51.680;5.976;2024-02-16T14:08:38;12.13;;;8.35;;
66886;SDS011;67239;51.680;5.976;2024-02-16T14:11:05;12.38;;;9.70;;
66886;SDS011;67239;51.680;5.976;2024-02-16T14:13:33;14.20;;;9.07;;
66886;SDS011;67239;51.680;5.976;2024-02-16T14:16:00;11.00;;;8.85;;
66886;SDS011;67239;51.680;5.976;2024-02-16T14:18:27;12.57;;;8.75;;
66886;SDS011;67239;51.680;5.976;2024-02-16T14:21:02;11.45;;;8.27;;
66886;SDS011;67239;51.680;5.976;2024-02-16T14:23:30;10.35;;;8.25;;
66886;SDS011;67239;51.680;5.976;2024-02-16T14:25:58;10.55;;;8.07;;
66886;SDS011;67239;51.680;5.976;2024-02-16T14:28:26;12.90;;;8.45;;
66886;SDS011;67239;51.680;5.976;2024-02-16T14:30:53;9.20;;;7.40;;
66886;SDS011;67239;51.680;5.976;2024-02-16T14:33:21;12.05;;;7.72;;
66886;SDS011;67239;51.680;5.976;2024-02-16T14:36:00;10.68;;;7.40;;
66886;SDS011;67239;51.680;5.976;2024-02-16T14:38:28;8.95;;;6.88;;
66886;SDS011;67239;51.680;5.976;2024-02-16T14:40:56;8.50;;;5.60;;
66886;SDS011;67239;51.680;5.976;2024-02-16T14:43:23;9.63;;;6.45;;
66886;SDS011;67239;51.680;5.976;2024-02-16T14:45:50;12.40;;;7.60;;
66886;SDS011;67239;51.680;5.976;2024-02-16T14:48:18;8.82;;;6.22;;
66886;SDS011;67239;51.680;5.976;2024-02-16T14:50:46;7.68;;;5.47;;
66886;SDS011;67239;51.680;5.976;2024-02-16T14:53:13;6.78;;;5.18;;
66886;SDS011;67239;51.680;5.976;2024-02-16T14:55:40;9.43;;;5.22;;
66886;SDS011;67239;51.680;5.976;2024-02-16T14:58:07;9.25;;;5.65;;
66886;SDS011;67239;51.680;5.976;2024-02-16T15:00:34;6.18;;;5.28;;